Time;durP1;ratioP1;P1;durP2;ratioP2;P2;SDS_P1;SDS_P2;PMS_P1;PMS_P2;Temp;Humidity;BMP_temperature;BMP_pressure;BME280_temperature;BME280_humidity;BME280_pressure;Samples;Min_cycle;Max_cycle;Signal;HPM_P1;HPM_P2
2022/02/25 00:00:06;;;;;;;2.58;1.23;;;;;;;1.35;80.69;97664.50;5027905;28;20398;-64
2022/02/25 00:02:37;;;;;;;;;;;;;;;1.27;81.22;97669.94;5037643;28;20073;-64
2022/02/25 00:05:05;;;;;;;2.78;0.70;;;;;;;1.41;80.56;97661.09;5039495;28;20526;-63
2022/02/25 00:07:32;;;;;;;2.30;1.08;;;;;;;1.42;80.20;97670.78;5038459;28;20041;-63
2022/02/25 00:09:58;;;;;;;2.13;0.88;;;;;;;1.32;80.88;97662.19;5035310;28;20040;-65
2022/02/25 00:12:25;;;;;;;4.35;1.00;;;;;;;1.32;81.06;97683.53;5035439;28;20049;-66
2022/02/25 00:14:53;;;;;;;6.15;1.30;;;;;;;1.27;81.16;97683.28;5041981;28;20044;-65
2022/02/25 00:17:20;;;;;;;3.03;1.25;;;;;;;1.36;79.88;97692.84;5029029;28;20080;-63
2022/02/25 00:19:47;;;;;;;1.15;0.70;;;;;;;1.48;79.78;97692.38;5036922;28;20038;-64
2022/02/25 00:22:14;;;;;;;3.92;1.02;;;;;;;1.51;79.64;97694.69;5032409;28;20610;-66
2022/02/25 00:24:40;;;;;;;3.05;1.42;;;;;;;1.32;81.04;97694.22;5043410;28;20040;-64
2022/02/25 00:27:07;;;;;;;1.98;0.75;;;;;;;1.46;79.78;97703.22;5033058;28;20047;-66
2022/02/25 00:29:33;;;;;;;1.45;0.90;;;;;;;1.50;80.26;97709.03;5035908;28;20530;-64
2022/02/25 00:32:00;;;;;;;2.47;1.08;;;;;;;1.43;81.50;97722.28;5041783;28;20519;-64
2022/02/25 00:34:27;;;;;;;4.40;1.50;;;;;;;1.37;81.15;97731.03;5042870;28;20049;-65
2022/02/25 00:36:53;;;;;;;3.00;1.00;;;;;;;1.53;80.41;97730.00;5039547;28;20041;-65
2022/02/25 00:39:20;;;;;;;4.15;1.20;;;;;;;1.40;81.55;97744.00;5045570;28;20094;-66
2022/02/25 00:41:46;;;;;;;3.92;1.40;;;;;;;1.35;80.71;97736.53;5039334;28;20049;-64
2022/02/25 00:44:13;;;;;;;3.10;1.23;;;;;;;1.31;82.21;97743.25;5043547;28;20045;-64
2022/02/25 00:46:40;;;;;;;1.58;1.00;;;;;;;1.36;81.10;97751.53;5039794;28;20568;-64
2022/02/25 00:49:07;;;;;;;2.90;1.17;;;;;;;1.30;82.44;97752.28;5042693;28;20040;-65
2022/02/25 00:51:33;;;;;;;4.28;1.17;;;;;;;1.29;82.09;97764.78;5044420;28;20048;-67
2022/02/25 00:54:00;;;;;;;5.57;1.25;;;;;;;1.32;80.63;97766.25;5035920;28;20042;-65
2022/02/25 00:56:26;;;;;;;3.63;1.05;;;;;;;1.38;79.81;97768.22;5044140;28;20131;-64
2022/02/25 00:58:54;;;;;;;3.55;1.20;;;;;;;1.42;80.32;97769.50;5039825;28;20067;-65
2022/02/25 01:01:21;;;;;;;1.88;0.98;;;;;;;1.28;80.46;97767.63;5033144;28;20451;-64
2022/02/25 01:03:48;;;;;;;2.78;1.23;;;;;;;1.17;78.65;97777.75;5032887;28;20052;-65
2022/02/25 01:06:14;;;;;;;3.85;1.27;;;;;;;1.09;79.92;97769.81;5049021;28;20504;-65
2022/02/25 01:08:41;;;;;;;1.95;1.20;;;;;;;0.97;79.66;97766.78;5039336;28;20055;-65
2022/02/25 01:11:08;;;;;;;1.75;0.98;;;;;;;0.97;79.59;97773.94;5034993;28;20044;-63
2022/02/25 01:13:34;;;;;;;5.97;1.75;;;;;;;0.83;80.17;97776.38;5036279;28;20540;-66
2022/02/25 01:16:01;;;;;;;3.22;1.00;;;;;;;0.78;79.67;97786.75;5043764;28;20063;-64
2022/02/25 01:18:27;;;;;;;6.75;1.38;;;;;;;0.81;79.70;97783.72;5033794;28;20432;-65
2022/02/25 01:20:54;;;;;;;5.32;1.40;;;;;;;0.80;80.25;97794.56;5030594;28;20041;-64
2022/02/25 01:23:20;;;;;;;5.43;0.90;;;;;;;0.67;81.56;97795.16;5043927;28;20033;-64
2022/02/25 01:25:47;;;;;;;5.40;1.10;;;;;;;0.60;81.11;97800.38;5033965;28;20048;-66
2022/02/25 01:28:13;;;;;;;3.17;1.13;;;;;;;0.52;80.90;97801.28;5036802;28;20033;-66
2022/02/25 01:30:40;;;;;;;3.95;1.05;;;;;;;0.43;80.68;97802.31;5037513;28;20067;-65
2022/02/25 01:33:07;;;;;;;3.63;0.95;;;;;;;0.46;80.11;97810.78;5036379;28;20067;-67
2022/02/25 01:35:35;;;;;;;6.57;1.10;;;;;;;0.52;79.74;97811.94;5031419;28;20067;-66
2022/02/25 01:38:02;;;;;;;4.80;1.10;;;;;;;0.43;80.71;97808.47;5041736;28;20045;-65
2022/02/25 01:40:28;;;;;;;3.38;0.63;;;;;;;0.36;79.72;97811.00;5039172;28;20045;-63
2022/02/25 01:42:55;;;;;;;3.88;1.15;;;;;;;0.30;79.96;97808.22;5042974;28;20053;-63
2022/02/25 01:45:22;;;;;;;2.30;0.85;;;;;;;0.25;79.41;97814.91;5042299;28;20102;-65
2022/02/25 01:47:48;;;;;;;2.03;0.88;;;;;;;0.32;79.04;97828.34;5043994;28;20057;-65
2022/02/25 01:50:15;;;;;;;2.92;0.70;;;;;;;0.28;79.56;97810.22;5029034;28;20107;-64
2022/02/25 01:53:07;;;;;;;3.05;1.00;;;;;;;0.11;80.14;97826.31;5042941;28;20128;-65
2022/02/25 01:55:35;;;;;;;2.55;0.60;;;;;;;0.05;80.58;97816.31;5040248;28;20475;-63
2022/02/25 01:58:02;;;;;;;1.55;0.82;;;;;;;-0.03;80.66;97817.19;5044003;28;20056;-65
2022/02/25 02:00:30;;;;;;;2.25;0.70;;;;;;;0.06;79.35;97812.66;5040141;28;20082;-64
2022/02/25 02:02:57;;;;;;;1.63;0.80;;;;;;;0.01;80.43;97820.34;5042565;28;20050;-64
2022/02/25 02:05:24;;;;;;;5.00;1.20;;;;;;;-0.06;80.26;97825.53;5035833;28;20659;-67
2022/02/25 02:07:51;;;;;;;3.28;0.70;;;;;;;0.03;79.18;97827.16;5032765;28;20041;-65
2022/02/25 02:10:19;;;;;;;3.50;0.65;;;;;;;-0.02;79.88;97829.50;5028161;28;20037;-67
2022/02/25 02:12:46;;;;;;;2.30;0.80;;;;;;;-0.10;80.08;97832.19;5028911;28;20108;-63
2022/02/25 02:15:13;;;;;;;4.18;0.90;;;;;;;-0.15;80.61;97833.53;5033058;28;20087;-67
2022/02/25 02:17:39;;;;;;;6.45;0.90;;;;;;;-0.12;79.91;97835.03;5026932;28;20049;-65
2022/02/25 02:20:07;;;;;;;2.47;1.00;;;;;;;-0.21;80.38;97834.22;5039403;28;20052;-65
2022/02/25 02:22:33;;;;;;;3.53;1.02;;;;;;;-0.15;79.56;97836.19;5041540;28;20041;-65
2022/02/25 02:25:00;;;;;;;8.20;1.00;;;;;;;-0.14;79.54;97840.50;5040257;28;20036;-65
2022/02/25 02:28:17;;;;;;;1.55;0.40;;;;;;;-0.09;79.28;97839.16;5034580;28;20041;-65
2022/02/25 02:30:15;;;;;;;1.48;0.63;;;;;;;-0.12;79.05;97836.88;5025919;28;20120;-63
2022/02/25 02:32:42;;;;;;;3.83;1.10;;;;;;;-0.20;80.15;97845.69;5042003;28;20046;-65
2022/02/25 02:35:09;;;;;;;1.77;0.90;;;;;;;-0.24;80.73;97839.88;5032893;28;20049;-65
2022/02/25 02:37:36;;;;;;;5.57;0.98;;;;;;;-0.23;80.29;97840.72;5039541;28;20094;-63
2022/02/25 02:40:03;;;;;;;8.43;1.15;;;;;;;-0.27;80.52;97846.38;5034840;28;20447;-65
2022/02/25 02:42:30;;;;;;;3.80;1.30;;;;;;;-0.26;80.71;97847.19;5028207;28;20041;-66
2022/02/25 02:44:56;;;;;;;5.60;1.58;;;;;;;-0.16;80.50;97847.84;5039564;28;20048;-64
2022/02/25 02:47:23;;;;;;;3.28;0.95;;;;;;;-0.12;81.22;97852.84;5033151;28;20052;-67
2022/02/25 02:49:49;;;;;;;7.70;0.93;;;;;;;-0.16;80.88;97849.66;5033059;28;20145;-65
2022/02/25 02:52:16;;;;;;;3.55;0.82;;;;;;;-0.15;80.57;97860.16;5039201;28;20489;-64
2022/02/25 02:54:43;;;;;;;1.60;0.70;;;;;;;-0.22;81.47;97859.16;5040720;28;20055;-67
2022/02/25 02:57:09;;;;;;;4.15;0.88;;;;;;;-0.24;82.16;97860.34;5044486;28;20484;-64
2022/02/25 02:59:36;;;;;;;1.83;0.90;;;;;;;-0.22;81.78;97861.81;5039961;28;20044;-64
2022/02/25 03:02:05;;;;;;;2.85;0.93;;;;;;;-0.13;81.00;97865.31;5045655;28;20045;-64
2022/02/25 03:04:31;;;;;;;7.38;0.88;;;;;;;-0.04;80.52;97860.81;5045547;28;20563;-66
2022/02/25 03:06:58;;;;;;;3.65;0.90;;;;;;;-0.06;80.87;97865.47;5045900;28;20056;-65
2022/02/25 03:09:25;;;;;;;4.88;0.68;;;;;;;-0.05;80.26;97865.28;5036904;28;20439;-65
2022/02/25 03:11:52;;;;;;;6.03;1.35;;;;;;;-0.02;80.83;97858.78;5028856;28;20052;-64
2022/02/25 03:14:18;;;;;;;7.95;1.15;;;;;;;-0.06;80.91;97855.66;5044471;28;20045;-67
2022/02/25 03:16:45;;;;;;;5.53;1.60;;;;;;;0.01;80.04;97868.25;5043688;28;20095;-65
2022/02/25 03:19:11;;;;;;;3.00;0.73;;;;;;;-0.01;80.48;97873.75;5031933;28;20671;-63
2022/02/25 03:21:38;;;;;;;1.33;0.90;;;;;;;0.03;80.25;97882.25;5039969;28;20061;-67
2022/02/25 03:24:06;;;;;;;7.75;1.23;;;;;;;-0.02;80.02;97875.59;5038736;28;20107;-64
2022/02/25 03:26:32;;;;;;;10.85;1.65;;;;;;;0.10;79.89;97878.72;5042541;28;20052;-65
2022/02/25 03:28:59;;;;;;;3.58;0.80;;;;;;;0.04;79.87;97886.56;5046644;28;20036;-65
2022/02/25 03:31:25;;;;;;;2.88;0.93;;;;;;;-0.07;80.72;97885.09;5040699;28;20049;-64
2022/02/25 03:33:52;;;;;;;7.07;1.35;;;;;;;-0.11;80.64;97884.59;5043904;28;20116;-65
2022/02/25 03:36:19;;;;;;;3.75;0.70;;;;;;;-0.06;80.30;97889.41;5035205;28;20043;-63
2022/02/25 03:38:45;;;;;;;3.05;0.80;;;;;;;-0.07;80.32;97888.56;5029972;28;20083;-65
2022/02/25 03:41:13;;;;;;;6.25;0.93;;;;;;;-0.02;80.33;97893.41;5041899;28;20123;-64
2022/02/25 03:43:40;;;;;;;7.82;1.08;;;;;;;0.04;79.96;97886.56;5038346;28;20045;-64
2022/02/25 03:46:06;;;;;;;6.30;1.23;;;;;;;0.01;80.09;97893.06;5032408;28;20049;-65
2022/02/25 03:48:33;;;;;;;7.90;1.35;;;;;;;-0.02;80.47;97891.56;5043187;28;20365;-66
2022/02/25 03:50:59;;;;;;;3.28;1.05;;;;;;;0.02;80.26;97889.38;5028106;28;20516;-66
2022/02/25 03:53:28;;;;;;;5.05;1.02;;;;;;;0.02;80.18;97899.19;5028809;28;20397;-66
2022/02/25 03:55:54;;;;;;;2.88;1.10;;;;;;;0.07;79.53;97889.69;5032413;28;20050;-64
2022/02/25 03:58:21;;;;;;;6.82;1.25;;;;;;;0.03;79.99;97891.03;5032330;28;20128;-67
2022/02/25 04:00:47;;;;;;;10.95;1.30;;;;;;;0.05;80.02;97896.19;5039599;28;20049;-66
2022/02/25 04:03:14;;;;;;;4.03;0.80;;;;;;;0.09;79.62;97903.69;5044942;28;20044;-64
2022/02/25 04:05:41;;;;;;;4.85;1.02;;;;;;;0.07;79.65;97903.00;5038439;28;20045;-66
2022/02/25 04:08:08;;;;;;;5.00;1.23;;;;;;;0.15;78.82;97898.69;5051641;28;20045;-66
2022/02/25 04:10:35;;;;;;;6.07;1.30;;;;;;;0.06;79.82;97901.34;5028394;28;20048;-65
2022/02/25 04:13:02;;;;;;;7.00;0.90;;;;;;;0.12;79.19;97903.31;5032346;28;20530;-67
2022/02/25 04:15:29;;;;;;;6.45;1.88;;;;;;;0.09;79.47;97908.19;5035231;28;20044;-66
2022/02/25 04:17:55;;;;;;;4.20;1.10;;;;;;;0.11;78.94;97907.00;5045482;28;20041;-65
2022/02/25 04:20:22;;;;;;;8.98;1.20;;;;;;;0.14;78.76;97913.81;5030127;28;20045;-66
2022/02/25 04:22:49;;;;;;;3.90;1.10;;;;;;;0.08;79.19;97907.34;5034410;28;20033;-64
2022/02/25 04:25:15;;;;;;;5.13;0.68;;;;;;;0.05;79.58;97915.69;5041815;28;20041;-64
2022/02/25 04:27:42;;;;;;;3.72;0.98;;;;;;;0.09;78.94;97921.50;5041554;28;20382;-64
2022/02/25 04:30:08;;;;;;;5.45;1.17;;;;;;;0.10;79.31;97926.66;5047601;28;20037;-67
2022/02/25 04:32:35;;;;;;;3.65;0.98;;;;;;;0.02;79.29;97931.16;5041884;28;20044;-64
2022/02/25 04:35:03;;;;;;;4.40;1.30;;;;;;;-0.06;79.45;97934.69;5039091;28;20033;-64
2022/02/25 04:37:32;;;;;;;3.28;1.17;;;;;;;-0.04;79.43;97930.84;5044671;28;20420;-67
2022/02/25 04:39:59;;;;;;;3.35;1.20;;;;;;;-0.08;80.77;97940.16;5041007;28;20037;-64
2022/02/25 04:42:26;;;;;;;5.10;1.23;;;;;;;-0.02;79.02;97931.50;5037621;28;20037;-64
2022/02/25 04:44:53;;;;;;;8.20;1.63;;;;;;;0.07;78.99;97942.16;5038002;28;20041;-66
2022/02/25 04:47:19;;;;;;;10.18;1.80;;;;;;;0.01;79.67;97942.81;5040139;28;20037;-67
2022/02/25 04:49:46;;;;;;;2.88;0.88;;;;;;;0.00;78.98;97936.69;5045573;28;20102;-64
2022/02/25 04:52:13;;;;;;;5.82;1.30;;;;;;;0.02;79.08;97947.13;5033833;28;20037;-67
2022/02/25 04:54:40;;;;;;;14.90;2.17;;;;;;;-0.05;79.18;97946.97;5030836;28;20064;-66
2022/02/25 04:57:06;;;;;;;5.20;1.38;;;;;;;-0.09;79.11;97945.66;5041192;28;20520;-66
2022/02/25 04:59:33;;;;;;;6.00;1.75;;;;;;;-0.11;79.72;97953.00;5043668;28;20745;-65
2022/02/25 05:02:00;;;;;;;5.28;1.17;;;;;;;-0.03;79.20;97955.66;5039537;28;20051;-65
2022/02/25 05:04:26;;;;;;;8.73;1.40;;;;;;;0.09;78.36;97946.28;5031507;28;20047;-66
2022/02/25 05:06:53;;;;;;;5.10;1.05;;;;;;;0.17;77.92;97953.44;5039839;28;20041;-65
2022/02/25 05:09:20;;;;;;;7.00;1.52;;;;;;;0.19;78.48;97955.91;5032661;28;20691;-67
2022/02/25 05:11:46;;;;;;;2.47;1.17;;;;;;;0.11;78.56;97962.09;5026314;28;20045;-64
2022/02/25 05:22:30;;;;;;;4.95;1.30;;;;;;;0.06;78.91;97965.28;5028264;28;20538;-67
2022/02/25 05:24:56;;;;;;;5.47;1.30;;;;;;;0.15;79.19;97967.91;5029810;28;20046;-65
2022/02/25 05:27:23;;;;;;;5.75;1.15;;;;;;;0.15;79.24;97966.09;5034001;28;20041;-64
2022/02/25 05:29:49;;;;;;;3.70;1.25;;;;;;;0.18;79.16;97967.59;5037417;28;20460;-67
2022/02/25 05:32:17;;;;;;;11.60;1.48;;;;;;;0.20;78.89;97976.22;5039647;28;20072;-64
2022/02/25 05:34:43;;;;;;;7.15;1.23;;;;;;;0.13;79.13;97978.72;5028513;28;20207;-64
2022/02/25 05:37:10;;;;;;;4.47;1.27;;;;;;;0.19;78.94;97980.69;5040190;28;20045;-65
2022/02/25 05:39:36;;;;;;;9.02;1.85;;;;;;;0.19;79.04;97982.56;5039056;28;20034;-67
2022/02/25 05:42:03;;;;;;;11.85;2.25;;;;;;;0.19;78.74;97993.22;5027257;28;20041;-65
2022/02/25 05:44:30;;;;;;;6.22;1.25;;;;;;;0.20;78.36;98001.03;5042081;28;20045;-66
2022/02/25 05:46:56;;;;;;;9.70;1.92;;;;;;;0.20;78.76;98008.19;5042585;28;20180;-67
2022/02/25 05:49:24;;;;;;;4.00;1.25;;;;;;;0.21;78.87;98016.00;5026453;28;20886;-66
2022/02/25 05:51:51;;;;;;;6.82;1.33;;;;;;;0.21;78.24;98012.50;5026866;28;20052;-65
2022/02/25 05:54:18;;;;;;;5.70;1.23;;;;;;;0.28;77.88;98015.31;5041539;28;20028;-66
2022/02/25 05:56:44;;;;;;;9.82;1.17;;;;;;;0.21;78.29;98021.34;5034461;28;20041;-64
2022/02/25 05:59:11;;;;;;;7.90;1.52;;;;;;;0.14;78.26;98020.34;5049209;28;20111;-65
2022/02/25 06:01:37;;;;;;;6.00;1.55;;;;;;;0.10;78.78;98027.00;5039960;28;20570;-64
2022/02/25 06:04:04;;;;;;;6.38;1.55;;;;;;;0.02;80.22;98027.84;5038296;28;20049;-66
2022/02/25 06:06:32;;;;;;;7.90;2.03;;;;;;;-0.16;80.55;98028.84;5048643;28;20044;-67
2022/02/25 06:08:59;;;;;;;4.55;1.45;;;;;;;-0.36;80.63;98027.53;5031180;28;20033;-68
2022/02/25 06:11:25;;;;;;;8.18;1.45;;;;;;;-0.27;80.23;98035.34;5032780;28;20607;-66
2022/02/25 06:13:52;;;;;;;5.57;1.60;;;;;;;-0.20;79.96;98035.50;5031705;28;20057;-65
2022/02/25 06:16:20;;;;;;;4.22;1.52;;;;;;;-0.08;79.00;98037.84;5037269;28;20048;-65
2022/02/25 06:18:47;;;;;;;6.85;1.42;;;;;;;-0.10;79.18;98040.69;5042354;28;20095;-67
2022/02/25 06:21:14;;;;;;;6.20;1.35;;;;;;;-0.15;79.17;98046.50;5030462;28;20048;-64
2022/02/25 06:23:40;;;;;;;2.72;1.10;;;;;;;-0.10;78.95;98046.00;5034547;28;20052;-65
2022/02/25 06:26:07;;;;;;;7.70;1.52;;;;;;;-0.28;79.31;98040.84;5033114;28;20710;-65
2022/02/25 06:28:34;;;;;;;13.00;1.55;;;;;;;-0.45;81.06;98050.63;5060552;28;20439;-64
2022/02/25 06:31:02;;;;;;;8.63;1.98;;;;;;;-0.60;80.99;98050.41;5045472;28;20499;-64
2022/02/25 06:33:29;;;;;;;5.95;1.67;;;;;;;-0.73;81.81;98049.09;5031119;28;20520;-65
2022/02/25 06:35:55;;;;;;;5.63;1.50;;;;;;;-0.79;82.73;98057.69;5044331;28;20041;-66
2022/02/25 06:38:25;;;;;;;6.72;1.70;;;;;;;-0.66;82.08;98046.63;5037394;28;21563;-67
2022/02/25 06:40:52;;;;;;;7.63;1.92;;;;;;;-0.80;81.54;98050.72;5041487;28;20072;-65
2022/02/25 06:43:19;;;;;;;4.88;1.67;;;;;;;-0.60;81.27;98066.38;5046595;28;20053;-64
2022/02/25 06:45:46;;;;;;;8.35;1.83;;;;;;;-0.37;80.30;98063.13;5034528;28;20045;-67
2022/02/25 06:48:12;;;;;;;19.60;6.10;;;;;;;-0.40;80.33;98066.94;5032034;28;20386;-64
2022/02/25 06:50:39;;;;;;;13.18;3.85;;;;;;;-0.67;80.43;98064.38;5029912;28;20405;-66
2022/02/25 06:53:08;;;;;;;116.57;39.72;;;;;;;-0.94;84.13;98068.97;5030074;28;20040;-66
2022/02/25 06:55:34;;;;;;;55.78;21.38;;;;;;;-0.93;85.45;98067.97;5031023;28;20501;-67
2022/02/25 06:58:04;;;;;;;113.40;41.60;;;;;;;-0.90;85.03;98077.44;5039281;28;20378;-66
2022/02/25 07:00:35;;;;;;;48.80;16.05;;;;;;;-0.88;84.31;98078.13;5040406;28;20792;-66
2022/02/25 07:03:04;;;;;;;19.50;7.88;;;;;;;-0.90;83.20;98084.56;5041425;28;20111;-66
2022/02/25 07:05:33;;;;;;;18.48;9.88;;;;;;;-0.81;82.96;98084.44;5055984;28;20048;-68
2022/02/25 07:07:59;;;;;;;13.00;4.15;;;;;;;-0.89;83.74;98091.59;5041013;28;20536;-65
2022/02/25 07:10:30;;;;;;;34.90;12.45;;;;;;;-0.97;83.63;98085.22;5038122;28;20233;-65
2022/02/25 07:12:57;;;;;;;8.48;2.63;;;;;;;-0.72;83.19;98087.13;5046118;28;20055;-67
2022/02/25 07:15:23;;;;;;;6.43;2.35;;;;;;;-0.54;82.48;98089.69;5042792;28;20059;-65
2022/02/25 07:17:50;;;;;;;17.45;5.80;;;;;;;-0.46;81.51;98096.84;5042373;28;20048;-64
2022/02/25 07:20:17;;;;;;;7.90;2.85;;;;;;;-0.48;81.32;98094.34;5040405;28;20044;-64
2022/02/25 07:22:45;;;;;;;15.68;6.38;;;;;;;-0.37;80.79;98098.53;5043699;28;20067;-65
2022/02/25 07:25:12;;;;;;;7.93;2.15;;;;;;;-0.19;80.25;98097.56;5045826;28;20053;-65
2022/02/25 07:27:39;;;;;;;18.30;5.90;;;;;;;-0.02;79.85;98103.72;5044775;28;20033;-64
2022/02/25 07:30:07;;;;;;;19.27;6.78;;;;;;;0.23;78.77;98101.06;5033947;28;20067;-64
2022/02/25 07:32:34;;;;;;;14.20;4.60;;;;;;;0.31;78.48;98108.22;5038988;28;20045;-67
2022/02/25 07:35:03;;;;;;;17.52;4.63;;;;;;;0.40;77.48;98104.53;5047684;28;20053;-66
2022/02/25 07:37:31;;;;;;;18.65;5.65;;;;;;;0.49;77.59;98114.22;5041998;28;20049;-64
2022/02/25 07:39:57;;;;;;;10.13;4.05;;;;;;;0.61;78.27;98119.19;5033846;28;20041;-67
2022/02/25 07:42:25;;;;;;;20.23;9.38;;;;;;;0.70;77.15;98112.81;5040466;28;20102;-66
2022/02/25 07:44:53;;;;;;;21.15;6.95;;;;;;;0.76;76.52;98116.66;5042392;28;20601;-66
2022/02/25 07:47:20;;;;;;;12.90;3.33;;;;;;;0.86;75.83;98127.13;5045294;28;20156;-66
2022/02/25 07:49:47;;;;;;;6.13;1.50;;;;;;;0.94;75.07;98131.59;5046074;28;20099;-64
2022/02/25 07:52:14;;;;;;;7.45;1.67;;;;;;;1.07;74.99;98134.56;5025583;28;20132;-65
2022/02/25 07:54:41;;;;;;;17.02;4.85;;;;;;;1.11;75.65;98143.06;5026150;28;20410;-66
2022/02/25 07:57:08;;;;;;;11.90;4.38;;;;;;;1.10;75.75;98138.75;5028138;28;20045;-65
2022/02/25 07:59:34;;;;;;;11.45;4.93;;;;;;;1.05;75.97;98141.91;5051149;28;20036;-67
2022/02/25 08:02:01;;;;;;;13.32;3.55;;;;;;;1.04;75.40;98135.72;5039910;28;20447;-66
2022/02/25 08:04:29;;;;;;;8.05;2.80;;;;;;;1.09;75.35;98145.06;5025350;28;20057;-67
2022/02/25 08:07:16;;;;;;;16.90;3.28;;;;;;;1.16;75.52;98138.03;5047146;28;20083;-67
2022/02/25 08:09:43;;;;;;;6.40;1.73;;;;;;;1.31;74.72;98132.81;5042402;28;20456;-66
2022/02/25 08:12:09;;;;;;;8.68;2.10;;;;;;;1.50;73.71;98144.06;5034815;28;20048;-65
2022/02/25 08:14:38;;;;;;;6.78;2.55;;;;;;;1.59;73.99;98143.03;5055228;28;20049;-67
2022/02/25 08:17:05;;;;;;;6.70;1.50;;;;;;;1.69;73.00;98138.28;5024686;28;20046;-65
2022/02/25 08:19:31;;;;;;;6.45;1.35;;;;;;;1.58;72.59;98143.22;5025005;28;20679;-64
2022/02/25 08:21:58;;;;;;;9.15;1.90;;;;;;;1.82;72.31;98136.88;5035345;28;20094;-66
2022/02/25 08:24:25;;;;;;;10.55;1.88;;;;;;;1.88;71.24;98136.16;5058631;28;20052;-67
2022/02/25 08:26:52;;;;;;;7.60;1.33;;;;;;;1.98;70.63;98125.25;5050461;28;20059;-65
2022/02/25 08:29:18;;;;;;;9.15;1.98;;;;;;;2.20;70.70;98128.09;5043099;28;20049;-65
2022/02/25 08:31:45;;;;;;;5.85;1.20;;;;;;;2.32;70.29;98121.31;5031242;28;20068;-64
2022/02/25 08:34:12;;;;;;;3.25;1.00;;;;;;;2.40;68.69;98125.75;5051449;28;20041;-64
2022/02/25 08:36:38;;;;;;;6.22;1.40;;;;;;;2.66;68.40;98127.22;5042594;28;20049;-66
2022/02/25 08:39:05;;;;;;;5.95;1.42;;;;;;;2.74;68.31;98120.94;5028778;28;20041;-65
2022/02/25 08:41:32;;;;;;;6.72;1.15;;;;;;;2.52;67.84;98119.97;5035444;28;20048;-66
2022/02/25 08:43:58;;;;;;;7.55;1.08;;;;;;;2.70;69.51;98131.16;5040385;28;20666;-65
2022/02/25 08:46:25;;;;;;;6.50;1.27;;;;;;;2.74;68.22;98126.31;5046449;28;20049;-64
2022/02/25 08:48:52;;;;;;;3.92;0.90;;;;;;;2.82;67.10;98125.38;5037224;28;20048;-67
2022/02/25 08:51:18;;;;;;;6.10;1.40;;;;;;;2.73;67.11;98119.28;5053043;28;20041;-65
2022/02/25 08:53:45;;;;;;;3.50;1.25;;;;;;;2.82;67.62;98126.22;5043987;28;20044;-67
2022/02/25 08:56:11;;;;;;;7.25;1.55;;;;;;;2.83;66.68;98127.88;5034366;28;20049;-66
2022/02/25 08:58:40;;;;;;;3.08;1.00;;;;;;;2.93;65.98;98126.75;5035657;28;20049;-65
2022/02/25 09:01:07;;;;;;;3.67;0.70;;;;;;;3.00;68.05;98133.06;5043712;28;20044;-66
2022/02/25 09:03:33;;;;;;;5.68;0.88;;;;;;;3.15;65.21;98126.84;5042547;28;20474;-66
2022/02/25 09:06:00;;;;;;;4.60;1.00;;;;;;;3.17;64.25;98124.84;5041612;28;20495;-68
2022/02/25 09:08:27;;;;;;;9.10;1.42;;;;;;;3.23;63.06;98124.09;5040389;28;20052;-66
2022/02/25 09:10:54;;;;;;;7.70;1.95;;;;;;;3.32;63.73;98125.63;5044152;28;20048;-64
2022/02/25 09:13:21;;;;;;;6.45;1.00;;;;;;;3.35;64.56;98122.59;5051955;28;20057;-66
2022/02/25 09:15:47;;;;;;;4.93;0.85;;;;;;;3.46;62.66;98136.53;5036511;28;20090;-65
2022/02/25 09:18:15;;;;;;;5.13;1.27;;;;;;;3.50;64.53;98127.94;5024727;28;20157;-66
2022/02/25 09:20:43;;;;;;;6.30;1.15;;;;;;;3.59;62.85;98127.81;5033348;28;20566;-66
2022/02/25 09:23:10;;;;;;;6.75;0.88;;;;;;;3.72;64.34;98127.97;5049441;28;20048;-65
2022/02/25 09:25:36;;;;;;;2.75;1.00;;;;;;;3.75;63.16;98132.13;5038183;28;20053;-66
2022/02/25 09:28:04;;;;;;;10.40;1.55;;;;;;;3.74;63.89;98135.81;5030014;28;20129;-65
2022/02/25 09:30:31;;;;;;;3.55;0.50;;;;;;;3.72;61.38;98130.66;5030788;28;20104;-66
2022/02/25 09:32:57;;;;;;;5.10;1.33;;;;;;;3.79;62.13;98130.72;5025978;28;20045;-66
2022/02/25 09:35:24;;;;;;;6.25;1.10;;;;;;;3.88;62.05;98128.78;5048780;28;20049;-67
2022/02/25 09:37:52;;;;;;;10.52;2.30;;;;;;;3.90;62.55;98132.91;5043312;28;20060;-65
2022/02/25 09:40:20;;;;;;;3.88;1.00;;;;;;;3.91;60.28;98131.06;5042461;28;20048;-65
2022/02/25 09:42:47;;;;;;;9.75;2.00;;;;;;;3.80;60.10;98128.88;5031848;28;20052;-66
2022/02/25 09:45:17;;;;;;;3.63;0.63;;;;;;;3.95;59.72;98142.22;5028483;28;20060;-65
2022/02/25 09:47:44;;;;;;;3.28;1.00;;;;;;;4.15;60.15;98131.72;5039094;28;20705;-67
2022/02/25 09:50:16;;;;;;;3.33;0.70;;;;;;;4.29;60.87;98127.31;5041020;28;20045;-65
2022/02/25 09:52:43;;;;;;;5.25;1.08;;;;;;;4.18;59.09;98134.00;5032266;28;20056;-65
2022/02/25 09:55:21;;;;;;;1.00;0.50;;;;;;;4.34;59.08;98132.91;5023161;28;20079;-66
2022/02/25 09:57:48;;;;;;;3.30;0.70;;;;;;;4.60;57.83;98136.03;5028689;28;20048;-66
2022/02/25 10:00:17;;;;;;;5.50;1.20;;;;;;;4.36;57.14;98130.88;5041476;28;20049;-66
2022/02/25 10:02:46;;;;;;;7.38;1.38;;;;;;;4.19;58.53;98142.88;5046869;28;20107;-65
2022/02/25 10:05:25;;;;;;;4.93;0.73;;;;;;;4.00;58.85;98132.59;5031965;28;20076;-64
2022/02/25 10:07:52;;;;;;;4.93;0.90;;;;;;;4.08;59.09;98147.72;5042133;28;20041;-65
2022/02/25 10:10:25;;;;;;;10.45;1.10;;;;;;;4.24;57.71;98156.53;5038990;28;20044;-64
2022/02/25 10:13:00;;;;;;;4.97;0.80;;;;;;;4.08;56.95;98155.75;5057952;28;20048;-66
2022/02/25 10:15:31;;;;;;;7.03;1.02;;;;;;;3.89;59.59;98154.53;5042160;28;20103;-67
2022/02/25 10:18:03;;;;;;;5.75;0.95;;;;;;;3.87;58.27;98152.03;5031082;28;20044;-66
2022/02/25 10:20:30;;;;;;;7.55;1.05;;;;;;;3.84;57.75;98148.91;5046734;28;20045;-64
2022/02/25 10:23:38;;;;;;;6.63;1.30;;;;;;;3.84;59.35;98147.06;5047429;28;20051;-65
2022/02/25 10:26:19;;;;;;;8.73;0.90;;;;;;;3.98;59.63;98142.66;5046334;28;20130;-66
2022/02/25 10:28:46;;;;;;;5.93;0.82;;;;;;;4.20;61.32;98147.22;5034898;28;20491;-65
2022/02/25 10:31:13;;;;;;;8.18;1.17;;;;;;;4.59;59.16;98139.72;5041461;28;20049;-66
2022/02/25 10:33:41;;;;;;;7.68;0.95;;;;;;;4.66;58.42;98145.97;5034981;28;20041;-65
2022/02/25 10:36:07;;;;;;;7.38;1.15;;;;;;;4.41;56.67;98152.56;5042230;28;20037;-65
2022/02/25 10:38:38;;;;;;;9.18;1.52;;;;;;;4.47;57.16;98150.16;5040592;28;20049;-65
2022/02/25 10:41:05;;;;;;;4.63;0.57;;;;;;;4.50;55.21;98163.19;5026848;28;20041;-66
2022/02/25 10:43:31;;;;;;;4.88;1.23;;;;;;;4.54;57.21;98157.22;5047119;28;20068;-66
2022/02/25 10:46:09;;;;;;;5.70;1.15;;;;;;;4.53;56.42;98144.84;5057174;28;20040;-67
2022/02/25 10:48:36;;;;;;;2.33;0.70;;;;;;;4.69;57.28;98148.28;5047036;28;20052;-66
2022/02/25 10:51:07;;;;;;;6.55;1.58;;;;;;;4.64;56.37;98148.03;5031695;28;20114;-66
2022/02/25 10:53:47;;;;;;;6.28;1.02;;;;;;;4.60;57.01;98166.34;5031451;28;20049;-67
2022/02/25 10:56:19;;;;;;;1.85;0.57;;;;;;;4.42;54.24;98150.72;5059375;28;20523;-67
2022/02/25 10:58:49;;;;;;;2.83;0.60;;;;;;;4.38;55.39;98168.19;5045237;28;20044;-65
2022/02/25 11:01:18;;;;;;;6.30;1.10;;;;;;;4.38;55.03;98158.31;5048102;28;20037;-65
2022/02/25 11:04:00;;;;;;;3.75;0.80;;;;;;;4.27;54.05;98162.34;5059368;28;20113;-66
2022/02/25 11:06:29;;;;;;;2.28;0.75;;;;;;;4.20;53.49;98158.75;5043696;28;20524;-67
2022/02/25 11:08:58;;;;;;;4.20;1.13;;;;;;;4.40;54.04;98171.53;5064267;28;20040;-64
2022/02/25 11:11:26;;;;;;;7.05;1.13;;;;;;;4.64;53.30;98156.06;5055495;28;20282;-67
2022/02/25 11:13:53;;;;;;;4.03;0.60;;;;;;;4.91;54.12;98150.91;5045058;28;20041;-64
2022/02/25 11:16:20;;;;;;;6.65;1.33;;;;;;;4.74;54.07;98159.25;5054539;28;20211;-67
2022/02/25 11:19:08;;;;;;;3.50;0.75;;;;;;;4.76;53.82;98164.41;5046303;28;20049;-66
2022/02/25 11:21:35;;;;;;;7.70;1.20;;;;;;;4.78;55.34;98149.78;5058460;28;20454;-66
2022/02/25 11:24:03;;;;;;;4.32;0.70;;;;;;;4.98;55.33;98142.88;5060149;28;20059;-65
2022/02/25 11:26:30;;;;;;;6.22;1.30;;;;;;;5.06;52.77;98140.88;5059101;28;20059;-66
2022/02/25 11:29:01;;;;;;;2.97;0.50;;;;;;;5.32;51.82;98157.34;5051610;28;20071;-68
2022/02/25 11:31:32;;;;;;;5.68;1.00;;;;;;;5.57;51.24;98136.16;5063662;28;20064;-65
2022/02/25 11:34:55;;;;;;;5.32;1.10;;;;;;;5.76;51.76;98139.13;5040830;28;20415;-67
2022/02/25 11:37:42;;;;;;;5.43;0.68;;;;;;;5.98;51.94;98131.75;5034631;28;20037;-64
2022/02/25 11:40:09;;;;;;;6.85;0.93;;;;;;;5.56;51.04;98136.34;5052693;28;20048;-66
2022/02/25 11:42:36;;;;;;;6.82;1.00;;;;;;;5.59;50.55;98147.56;5054515;28;20052;-69
2022/02/25 11:45:23;;;;;;;4.47;0.88;;;;;;;5.71;50.62;98142.41;5044738;28;20041;-66
2022/02/25 11:47:52;;;;;;;4.88;1.25;;;;;;;6.09;50.08;98124.97;5043973;28;20107;-66
2022/02/25 11:50:50;;;;;;;7.00;1.08;;;;;;;6.10;50.39;98123.13;5055091;28;20063;-68